sensor_id;sensor_type;location;lat;lon;timestamp;P1;durP1;ratioP1;P2;durP2;ratioP2
63807;SDS011;49961;43.970;22.868;2023-02-28T00:00:58;24.37;;;19.83;;
63807;SDS011;49961;43.970;22.868;2023-02-28T00:01:58;24.30;;;20.00;;
63807;SDS011;49961;43.970;22.868;2023-02-28T00:02:59;23.77;;;20.17;;
63807;SDS011;49961;43.970;22.868;2023-02-28T00:04:00;24.05;;;19.35;;
63807;SDS011;49961;43.970;22.868;2023-02-28T00:05:00;23.50;;;19.93;;
63807;SDS011;49961;43.970;22.868;2023-02-28T00:06:04;23.92;;;19.73;;
63807;SDS011;49961;43.970;22.868;2023-02-28T00:07:06;23.08;;;19.33;;
63807;SDS011;49961;43.970;22.868;2023-02-28T00:08:06;23.87;;;19.77;;
63807;SDS011;49961;43.970;22.868;2023-02-28T00:09:07;24.83;;;20.38;;
63807;SDS011;49961;43.970;22.868;2023-02-28T00:10:09;23.77;;;20.77;;
63807;SDS011;49961;43.970;22.868;2023-02-28T00:11:12;23.77;;;19.60;;
63807;SDS011;49961;43.970;22.868;2023-02-28T00:12:14;24.05;;;20.13;;
63807;SDS011;49961;43.970;22.868;2023-02-28T00:13:14;25.63;;;21.03;;
63807;SDS011;49961;43.970;22.868;2023-02-28T00:14:15;23.50;;;20.27;;
63807;SDS011;49961;43.970;22.868;2023-02-28T00:15:15;27.13;;;20.60;;
63807;SDS011;49961;43.970;22.868;2023-02-28T00:16:18;25.65;;;21.15;;
63807;SDS011;49961;43.970;22.868;2023-02-28T00:17:20;25.58;;;20.30;;
63807;SDS011;49961;43.970;22.868;2023-02-28T00:18:23;25.73;;;21.13;;
63807;SDS011;49961;43.970;22.868;2023-02-28T00:19:24;24.70;;;20.97;;
63807;SDS011;49961;43.970;22.868;2023-02-28T00:20:24;25.13;;;20.87;;
63807;SDS011;49961;43.970;22.868;2023-02-28T00:21:25;24.23;;;20.47;;
63807;SDS011;49961;43.970;22.868;2023-02-28T00:22:25;24.27;;;19.97;;
63807;SDS011;49961;43.970;22.868;2023-02-28T00:23:26;25.30;;;20.43;;
63807;SDS011;49961;43.970;22.868;2023-02-28T00:24:27;25.55;;;20.40;;
63807;SDS011;49961;43.970;22.868;2023-02-28T00:25:27;24.70;;;21.17;;
63807;SDS011;49961;43.970;22.868;2023-02-28T00:26:28;25.77;;;20.73;;
63807;SDS011;49961;43.970;22.868;2023-02-28T00:27:28;24.73;;;20.13;;
63807;SDS011;49961;43.970;22.868;2023-02-28T00:28:29;24.27;;;19.83;;
63807;SDS011;49961;43.970;22.868;2023-02-28T00:29:29;25.50;;;20.27;;
63807;SDS011;49961;43.970;22.868;2023-02-28T00:30:30;27.83;;;21.27;;
63807;SDS011;49961;43.970;22.868;2023-02-28T00:31:30;26.60;;;21.17;;
63807;SDS011;49961;43.970;22.868;2023-02-28T00:32:31;25.63;;;20.70;;
63807;SDS011;49961;43.970;22.868;2023-02-28T00:33:31;24.33;;;19.90;;
63807;SDS011;49961;43.970;22.868;2023-02-28T00:34:32;26.83;;;21.57;;
63807;SDS011;49961;43.970;22.868;2023-02-28T00:35:37;25.63;;;21.00;;
63807;SDS011;49961;43.970;22.868;2023-02-28T00:36:38;25.13;;;19.87;;
63807;SDS011;49961;43.970;22.868;2023-02-28T00:37:39;25.27;;;20.43;;
63807;SDS011;49961;43.970;22.868;2023-02-28T00:38:39;24.43;;;20.77;;
63807;SDS011;49961;43.970;22.868;2023-02-28T00:39:40;25.33;;;20.35;;
63807;SDS011;49961;43.970;22.868;2023-02-28T00:40:41;26.03;;;20.70;;
63807;SDS011;49961;43.970;22.868;2023-02-28T00:41:41;25.27;;;20.30;;
63807;SDS011;49961;43.970;22.868;2023-02-28T00:42:42;27.13;;;21.07;;
63807;SDS011;49961;43.970;22.868;2023-02-28T00:43:42;26.40;;;21.03;;
63807;SDS011;49961;43.970;22.868;2023-02-28T00:44:43;25.90;;;21.10;;
63807;SDS011;49961;43.970;22.868;2023-02-28T00:45:43;25.57;;;21.23;;
63807;SDS011;49961;43.970;22.868;2023-02-28T00:46:44;27.20;;;21.90;;
63807;SDS011;49961;43.970;22.868;2023-02-28T00:47:44;25.30;;;20.80;;
63807;SDS011;49961;43.970;22.868;2023-02-28T00:48:46;26.98;;;20.95;;
63807;SDS011;49961;43.970;22.868;2023-02-28T00:49:46;25.57;;;21.17;;
63807;SDS011;49961;43.970;22.868;2023-02-28T00:50:50;24.00;;;20.50;;
63807;SDS011;49961;43.970;22.868;2023-02-28T00:51:51;26.83;;;20.65;;
63807;SDS011;49961;43.970;22.868;2023-02-28T00:52:52;25.08;;;20.55;;
63807;SDS011;49961;43.970;22.868;2023-02-28T00:53:52;25.37;;;20.27;;
63807;SDS011;49961;43.970;22.868;2023-02-28T00:54:54;25.40;;;20.63;;
63807;SDS011;49961;43.970;22.868;2023-02-28T00:55:54;24.07;;;20.37;;
63807;SDS011;49961;43.970;22.868;2023-02-28T00:56:54;27.10;;;21.07;;
63807;SDS011;49961;43.970;22.868;2023-02-28T00:57:55;26.03;;;21.00;;
63807;SDS011;49961;43.970;22.868;2023-02-28T00:58:55;26.77;;;20.70;;
63807;SDS011;49961;43.970;22.868;2023-02-28T00:59:56;23.60;;;19.47;;
63807;SDS011;49961;43.970;22.868;2023-02-28T01:00:56;25.43;;;20.63;;
63807;SDS011;49961;43.970;22.868;2023-02-28T01:01:56;25.83;;;21.10;;
63807;SDS011;49961;43.970;22.868;2023-02-28T01:02:57;25.13;;;20.20;;
63807;SDS011;49961;43.970;22.868;2023-02-28T01:03:57;24.57;;;20.43;;
63807;SDS011;49961;43.970;22.868;2023-02-28T01:04:58;25.60;;;20.83;;
63807;SDS011;49961;43.970;22.868;2023-02-28T01:05:58;25.03;;;20.40;;
63807;SDS011;49961;43.970;22.868;2023-02-28T01:06:59;25.73;;;20.90;;
63807;SDS011;49961;43.970;22.868;2023-02-28T01:07:59;26.10;;;20.63;;
63807;SDS011;49961;43.970;22.868;2023-02-28T01:09:00;28.83;;;21.70;;
63807;SDS011;49961;43.970;22.868;2023-02-28T01:10:00;25.80;;;20.87;;
63807;SDS011;49961;43.970;22.868;2023-02-28T01:11:10;27.30;;;21.53;;
63807;SDS011;49961;43.970;22.868;2023-02-28T01:12:11;24.95;;;20.83;;
63807;SDS011;49961;43.970;22.868;2023-02-28T01:13:12;26.47;;;20.27;;
63807;SDS011;49961;43.970;22.868;2023-02-28T01:14:14;26.87;;;21.20;;
63807;SDS011;49961;43.970;22.868;2023-02-28T01:15:16;27.23;;;21.52;;
63807;SDS011;49961;43.970;22.868;2023-02-28T01:16:16;26.70;;;21.80;;
63807;SDS011;49961;43.970;22.868;2023-02-28T01:17:17;26.40;;;21.57;;
63807;SDS011;49961;43.970;22.868;2023-02-28T01:18:17;28.60;;;22.90;;
63807;SDS011;49961;43.970;22.868;2023-02-28T01:19:18;27.37;;;22.37;;
63807;SDS011;49961;43.970;22.868;2023-02-28T01:20:18;29.27;;;22.70;;
63807;SDS011;49961;43.970;22.868;2023-02-28T01:21:20;28.23;;;22.93;;
63807;SDS011;49961;43.970;22.868;2023-02-28T01:22:21;26.45;;;22.15;;
63807;SDS011;49961;43.970;22.868;2023-02-28T01:23:22;28.77;;;22.90;;
63807;SDS011;49961;43.970;22.868;2023-02-28T01:24:23;28.80;;;23.00;;
63807;SDS011;49961;43.970;22.868;2023-02-28T01:25:23;28.73;;;22.27;;
63807;SDS011;49961;43.970;22.868;2023-02-28T01:26:24;28.83;;;22.13;;
63807;SDS011;49961;43.970;22.868;2023-02-28T01:27:24;29.43;;;22.67;;
63807;SDS011;49961;43.970;22.868;2023-02-28T01:28:26;27.08;;;20.90;;
63807;SDS011;49961;43.970;22.868;2023-02-28T01:29:26;26.70;;;20.90;;
63807;SDS011;49961;43.970;22.868;2023-02-28T01:30:27;25.87;;;21.03;;
63807;SDS011;49961;43.970;22.868;2023-02-28T01:31:27;28.27;;;21.67;;
63807;SDS011;49961;43.970;22.868;2023-02-28T01:32:28;30.23;;;22.23;;
63807;SDS011;49961;43.970;22.868;2023-02-28T01:33:28;27.70;;;21.80;;
63807;SDS011;49961;43.970;22.868;2023-02-28T01:34:29;27.47;;;21.63;;
63807;SDS011;49961;43.970;22.868;2023-02-28T01:35:32;29.50;;;22.47;;
63807;SDS011;49961;43.970;22.868;2023-02-28T01:36:35;30.63;;;22.58;;
63807;SDS011;49961;43.970;22.868;2023-02-28T01:37:36;29.60;;;22.00;;
63807;SDS011;49961;43.970;22.868;2023-02-28T01:38:37;29.43;;;22.20;;
63807;SDS011;49961;43.970;22.868;2023-02-28T01:39:37;30.70;;;23.75;;
63807;SDS011;49961;43.970;22.868;2023-02-28T01:40:38;29.57;;;23.87;;
63807;SDS011;49961;43.970;22.868;2023-02-28T01:41:39;30.57;;;23.73;;
63807;SDS011;49961;43.970;22.868;2023-02-28T01:42:39;30.50;;;24.25;;
63807;SDS011;49961;43.970;22.868;2023-02-28T01:44:58;35.33;;;24.27;;
63807;SDS011;49961;43.970;22.868;2023-02-28T01:46:01;32.28;;;24.05;;
63807;SDS011;49961;43.970;22.868;2023-02-28T01:47:01;31.40;;;23.90;;
63807;SDS011;49961;43.970;22.868;2023-02-28T01:48:03;32.73;;;24.60;;
63807;SDS011;49961;43.970;22.868;2023-02-28T01:49:08;33.05;;;25.23;;
63807;SDS011;49961;43.970;22.868;2023-02-28T01:50:16;33.00;;;24.88;;
63807;SDS011;49961;43.970;22.868;2023-02-28T01:51:22;28.48;;;23.08;;
63807;SDS011;49961;43.970;22.868;2023-02-28T01:52:28;31.25;;;23.40;;
63807;SDS011;49961;43.970;22.868;2023-02-28T01:53:34;28.75;;;23.00;;
63807;SDS011;49961;43.970;22.868;2023-02-28T01:54:38;30.23;;;23.10;;
63807;SDS011;49961;43.970;22.868;2023-02-28T01:55:39;29.33;;;22.80;;
63807;SDS011;49961;43.970;22.868;2023-02-28T01:56:46;26.75;;;21.75;;
63807;SDS011;49961;43.970;22.868;2023-02-28T01:57:51;29.45;;;21.48;;
63807;SDS011;49961;43.970;22.868;2023-02-28T01:58:55;27.95;;;21.70;;
63807;SDS011;49961;43.970;22.868;2023-02-28T01:59:57;29.08;;;22.45;;
63807;SDS011;49961;43.970;22.868;2023-02-28T02:01:00;28.60;;;22.17;;
63807;SDS011;49961;43.970;22.868;2023-02-28T02:02:03;28.45;;;21.92;;
63807;SDS011;49961;43.970;22.868;2023-02-28T02:03:05;26.98;;;21.50;;
63807;SDS011;49961;43.970;22.868;2023-02-28T02:04:08;27.83;;;21.38;;
63807;SDS011;49961;43.970;22.868;2023-02-28T02:05:11;25.63;;;21.03;;
63807;SDS011;49961;43.970;22.868;2023-02-28T02:06:14;25.02;;;20.10;;
63807;SDS011;49961;43.970;22.868;2023-02-28T02:07:14;26.20;;;20.43;;
63807;SDS011;49961;43.970;22.868;2023-02-28T02:08:17;27.17;;;20.27;;
63807;SDS011;49961;43.970;22.868;2023-02-28T02:09:19;26.23;;;21.08;;
63807;SDS011;49961;43.970;22.868;2023-02-28T02:10:21;26.43;;;21.07;;
63807;SDS011;49961;43.970;22.868;2023-02-28T02:11:29;26.85;;;20.98;;
63807;SDS011;49961;43.970;22.868;2023-02-28T02:14:49;28.23;;;20.77;;
63807;SDS011;49961;43.970;22.868;2023-02-28T02:22:28;25.73;;;20.05;;
63807;SDS011;49961;43.970;22.868;2023-02-28T02:25:17;26.42;;;20.65;;
63807;SDS011;49961;43.970;22.868;2023-02-28T02:27:57;24.98;;;19.80;;
63807;SDS011;49961;43.970;22.868;2023-02-28T02:36:12;27.60;;;20.73;;
63807;SDS011;49961;43.970;22.868;2023-02-28T02:42:29;26.75;;;20.02;;
63807;SDS011;49961;43.970;22.868;2023-02-28T02:45:01;26.85;;;19.58;;
63807;SDS011;49961;43.970;22.868;2023-02-28T02:46:10;26.95;;;20.52;;
63807;SDS011;49961;43.970;22.868;2023-02-28T02:47:17;25.05;;;20.05;;
63807;SDS011;49961;43.970;22.868;2023-02-28T02:48:24;27.67;;;20.73;;
63807;SDS011;49961;43.970;22.868;2023-02-28T02:49:30;26.85;;;20.30;;
63807;SDS011;49961;43.970;22.868;2023-02-28T02:50:40;25.67;;;19.80;;
63807;SDS011;49961;43.970;22.868;2023-02-28T02:51:45;26.52;;;19.92;;
63807;SDS011;49961;43.970;22.868;2023-02-28T02:52:49;24.60;;;19.50;;
63807;SDS011;49961;43.970;22.868;2023-02-28T02:53:57;24.08;;;19.08;;
63807;SDS011;49961;43.970;22.868;2023-02-28T02:55:04;24.23;;;19.00;;
63807;SDS011;49961;43.970;22.868;2023-02-28T02:56:06;23.92;;;19.13;;
63807;SDS011;49961;43.970;22.868;2023-02-28T02:57:10;24.38;;;19.40;;
63807;SDS011;49961;43.970;22.868;2023-02-28T02:58:24;25.15;;;20.50;;
63807;SDS011;49961;43.970;22.868;2023-02-28T02:59:30;25.23;;;20.75;;
63807;SDS011;49961;43.970;22.868;2023-02-28T03:00:33;25.27;;;20.75;;
63807;SDS011;49961;43.970;22.868;2023-02-28T03:01:49;26.10;;;20.77;;
63807;SDS011;49961;43.970;22.868;2023-02-28T03:02:52;29.60;;;22.85;;
63807;SDS011;49961;43.970;22.868;2023-02-28T03:04:02;27.05;;;21.73;;
63807;SDS011;49961;43.970;22.868;2023-02-28T03:05:29;28.45;;;22.60;;
63807;SDS011;49961;43.970;22.868;2023-02-28T03:06:35;28.63;;;21.80;;
63807;SDS011;49961;43.970;22.868;2023-02-28T03:07:36;27.03;;;21.63;;
63807;SDS011;49961;43.970;22.868;2023-02-28T03:08:37;27.53;;;21.23;;
63807;SDS011;49961;43.970;22.868;2023-02-28T03:09:38;27.40;;;21.90;;
63807;SDS011;49961;43.970;22.868;2023-02-28T03:10:40;29.67;;;21.83;;
63807;SDS011;49961;43.970;22.868;2023-02-28T03:11:46;27.77;;;22.13;;
63807;SDS011;49961;43.970;22.868;2023-02-28T03:12:49;30.30;;;22.33;;
63807;SDS011;49961;43.970;22.868;2023-02-28T03:14:19;26.88;;;21.30;;
63807;SDS011;49961;43.970;22.868;2023-02-28T03:15:48;28.63;;;21.38;;
63807;SDS011;49961;43.970;22.868;2023-02-28T03:18:01;29.15;;;22.25;;
63807;SDS011;49961;43.970;22.868;2023-02-28T03:23:27;30.15;;;22.30;;
63807;SDS011;49961;43.970;22.868;2023-02-28T03:26:58;30.38;;;23.30;;
63807;SDS011;49961;43.970;22.868;2023-02-28T03:29:28;27.20;;;22.00;;
63807;SDS011;49961;43.970;22.868;2023-02-28T03:30:40;29.52;;;22.00;;
63807;SDS011;49961;43.970;22.868;2023-02-28T03:31:44;28.10;;;22.70;;
63807;SDS011;49961;43.970;22.868;2023-02-28T03:33:03;28.20;;;22.25;;
63807;SDS011;49961;43.970;22.868;2023-02-28T03:34:17;27.92;;;22.38;;
63807;SDS011;49961;43.970;22.868;2023-02-28T03:35:34;28.48;;;21.85;;
63807;SDS011;49961;43.970;22.868;2023-02-28T03:36:39;27.95;;;22.27;;
63807;SDS011;49961;43.970;22.868;2023-02-28T03:37:45;28.65;;;22.63;;
63807;SDS011;49961;43.970;22.868;2023-02-28T03:38:51;29.02;;;23.27;;
63807;SDS011;49961;43.970;22.868;2023-02-28T03:39:58;28.25;;;21.85;;
63807;SDS011;49961;43.970;22.868;2023-02-28T03:41:04;31.02;;;23.48;;
63807;SDS011;49961;43.970;22.868;2023-02-28T03:42:20;28.20;;;22.50;;
63807;SDS011;49961;43.970;22.868;2023-02-28T03:43:28;29.77;;;23.35;;
63807;SDS011;49961;43.970;22.868;2023-02-28T03:44:38;29.48;;;23.02;;
63807;SDS011;49961;43.970;22.868;2023-02-28T03:45:42;31.00;;;23.27;;
63807;SDS011;49961;43.970;22.868;2023-02-28T03:46:51;29.42;;;22.70;;
63807;SDS011;49961;43.970;22.868;2023-02-28T03:48:02;29.85;;;22.67;;
63807;SDS011;49961;43.970;22.868;2023-02-28T03:49:24;30.75;;;21.90;;
63807;SDS011;49961;43.970;22.868;2023-02-28T03:50:38;31.67;;;23.45;;
63807;SDS011;49961;43.970;22.868;2023-02-28T03:51:41;30.02;;;22.75;;
63807;SDS011;49961;43.970;22.868;2023-02-28T03:52:44;32.50;;;23.42;;
63807;SDS011;49961;43.970;22.868;2023-02-28T03:53:53;32.65;;;23.05;;
63807;SDS011;49961;43.970;22.868;2023-02-28T03:54:59;31.98;;;23.08;;
63807;SDS011;49961;43.970;22.868;2023-02-28T03:56:08;30.63;;;22.48;;
63807;SDS011;49961;43.970;22.868;2023-02-28T04:00:21;27.40;;;20.15;;
63807;SDS011;49961;43.970;22.868;2023-02-28T04:01:40;31.27;;;22.42;;
63807;SDS011;49961;43.970;22.868;2023-02-28T04:02:43;28.15;;;20.85;;
63807;SDS011;49961;43.970;22.868;2023-02-28T04:03:43;25.53;;;20.23;;
63807;SDS011;49961;43.970;22.868;2023-02-28T04:04:44;25.63;;;20.37;;
63807;SDS011;49961;43.970;22.868;2023-02-28T04:05:52;27.55;;;20.50;;
63807;SDS011;49961;43.970;22.868;2023-02-28T04:07:00;25.67;;;20.08;;
63807;SDS011;49961;43.970;22.868;2023-02-28T04:08:04;26.63;;;20.20;;
63807;SDS011;49961;43.970;22.868;2023-02-28T04:09:07;25.67;;;20.40;;
63807;SDS011;49961;43.970;22.868;2023-02-28T04:10:09;28.80;;;20.95;;
63807;SDS011;49961;43.970;22.868;2023-02-28T04:11:57;27.73;;;21.13;;
63807;SDS011;49961;43.970;22.868;2023-02-28T04:12:38;27.85;;;20.30;;
63807;SDS011;49961;43.970;22.868;2023-02-28T04:13:38;26.13;;;20.30;;
63807;SDS011;49961;43.970;22.868;2023-02-28T04:14:39;26.37;;;19.93;;
63807;SDS011;49961;43.970;22.868;2023-02-28T04:15:39;27.10;;;20.10;;
63807;SDS011;49961;43.970;22.868;2023-02-28T04:16:40;27.10;;;21.03;;
63807;SDS011;49961;43.970;22.868;2023-02-28T04:17:41;27.33;;;20.48;;
63807;SDS011;49961;43.970;22.868;2023-02-28T04:18:42;28.70;;;21.37;;
63807;SDS011;49961;43.970;22.868;2023-02-28T04:19:45;26.42;;;20.58;;
63807;SDS011;49961;43.970;22.868;2023-02-28T04:20:46;27.77;;;21.20;;
63807;SDS011;49961;43.970;22.868;2023-02-28T04:21:48;29.10;;;21.03;;
63807;SDS011;49961;43.970;22.868;2023-02-28T04:22:50;28.95;;;21.55;;
63807;SDS011;49961;43.970;22.868;2023-02-28T04:23:50;30.57;;;22.63;;
63807;SDS011;49961;43.970;22.868;2023-02-28T04:24:51;29.83;;;22.00;;
63807;SDS011;49961;43.970;22.868;2023-02-28T04:25:54;26.15;;;20.58;;
63807;SDS011;49961;43.970;22.868;2023-02-28T04:26:56;26.10;;;19.90;;
63807;SDS011;49961;43.970;22.868;2023-02-28T04:27:57;26.42;;;19.77;;
63807;SDS011;49961;43.970;22.868;2023-02-28T04:28:58;25.83;;;19.90;;
63807;SDS011;49961;43.970;22.868;2023-02-28T04:29:59;25.73;;;19.77;;
63807;SDS011;49961;43.970;22.868;2023-02-28T04:31:01;26.57;;;20.87;;
63807;SDS011;49961;43.970;22.868;2023-02-28T04:32:04;25.90;;;19.88;;
63807;SDS011;49961;43.970;22.868;2023-02-28T04:33:04;28.03;;;20.27;;
63807;SDS011;49961;43.970;22.868;2023-02-28T04:34:05;25.93;;;19.83;;
63807;SDS011;49961;43.970;22.868;2023-02-28T04:35:06;27.35;;;20.30;;
63807;SDS011;49961;43.970;22.868;2023-02-28T04:36:07;26.65;;;20.55;;
63807;SDS011;49961;43.970;22.868;2023-02-28T04:37:08;30.52;;;22.02;;
63807;SDS011;49961;43.970;22.868;2023-02-28T04:38:09;27.33;;;21.10;;
63807;SDS011;49961;43.970;22.868;2023-02-28T04:39:09;28.13;;;21.27;;
63807;SDS011;49961;43.970;22.868;2023-02-28T04:40:10;25.33;;;20.50;;
63807;SDS011;49961;43.970;22.868;2023-02-28T04:41:11;27.87;;;21.13;;
63807;SDS011;49961;43.970;22.868;2023-02-28T04:42:15;30.77;;;21.48;;
63807;SDS011;49961;43.970;22.868;2023-02-28T04:43:15;29.30;;;21.43;;
63807;SDS011;49961;43.970;22.868;2023-02-28T04:44:16;28.77;;;21.67;;
63807;SDS011;49961;43.970;22.868;2023-02-28T04:45:16;27.70;;;21.47;;
63807;SDS011;49961;43.970;22.868;2023-02-28T04:46:17;28.80;;;21.47;;
63807;SDS011;49961;43.970;22.868;2023-02-28T04:47:18;29.33;;;21.58;;
63807;SDS011;49961;43.970;22.868;2023-02-28T04:48:18;27.77;;;21.10;;
63807;SDS011;49961;43.970;22.868;2023-02-28T04:49:19;29.83;;;22.30;;
63807;SDS011;49961;43.970;22.868;2023-02-28T04:50:19;28.17;;;20.97;;
63807;SDS011;49961;43.970;22.868;2023-02-28T04:51:20;26.67;;;20.50;;
63807;SDS011;49961;43.970;22.868;2023-02-28T04:52:20;26.33;;;19.20;;
63807;SDS011;49961;43.970;22.868;2023-02-28T04:53:21;28.70;;;20.70;;
63807;SDS011;49961;43.970;22.868;2023-02-28T04:54:21;26.47;;;20.10;;
63807;SDS011;49961;43.970;22.868;2023-02-28T04:55:22;27.93;;;20.37;;
63807;SDS011;49961;43.970;22.868;2023-02-28T04:56:22;26.87;;;20.50;;
63807;SDS011;49961;43.970;22.868;2023-02-28T04:57:23;29.40;;;20.67;;
63807;SDS011;49961;43.970;22.868;2023-02-28T04:58:23;27.77;;;19.93;;
63807;SDS011;49961;43.970;22.868;2023-02-28T04:59:24;28.42;;;20.73;;
63807;SDS011;49961;43.970;22.868;2023-02-28T05:00:25;27.40;;;19.70;;
63807;SDS011;49961;43.970;22.868;2023-02-28T05:01:27;26.33;;;20.13;;
63807;SDS011;49961;43.970;22.868;2023-02-28T05:02:29;26.95;;;19.40;;
63807;SDS011;49961;43.970;22.868;2023-02-28T05:03:29;25.10;;;18.87;;
63807;SDS011;49961;43.970;22.868;2023-02-28T05:04:30;23.40;;;18.00;;
63807;SDS011;49961;43.970;22.868;2023-02-28T05:05:34;23.85;;;18.15;;
63807;SDS011;49961;43.970;22.868;2023-02-28T05:06:34;22.97;;;17.40;;
63807;SDS011;49961;43.970;22.868;2023-02-28T05:07:34;22.93;;;16.37;;
63807;SDS011;49961;43.970;22.868;2023-02-28T05:08:35;22.27;;;16.77;;
63807;SDS011;49961;43.970;22.868;2023-02-28T05:09:35;23.00;;;16.43;;
63807;SDS011;49961;43.970;22.868;2023-02-28T05:10:36;22.37;;;16.33;;
63807;SDS011;49961;43.970;22.868;2023-02-28T05:11:36;21.67;;;16.43;;
63807;SDS011;49961;43.970;22.868;2023-02-28T05:12:38;20.05;;;15.15;;
63807;SDS011;49961;43.970;22.868;2023-02-28T05:13:38;21.47;;;15.90;;
63807;SDS011;49961;43.970;22.868;2023-02-28T05:14:39;18.63;;;14.43;;
63807;SDS011;49961;43.970;22.868;2023-02-28T05:15:39;16.63;;;13.03;;
63807;SDS011;49961;43.970;22.868;2023-02-28T05:16:40;17.80;;;12.97;;
63807;SDS011;49961;43.970;22.868;2023-02-28T05:17:40;17.33;;;13.20;;
63807;SDS011;49961;43.970;22.868;2023-02-28T05:18:41;18.03;;;13.33;;
63807;SDS011;49961;43.970;22.868;2023-02-28T05:19:42;15.83;;;12.03;;
63807;SDS011;49961;43.970;22.868;2023-02-28T05:20:42;15.83;;;12.23;;
63807;SDS011;49961;43.970;22.868;2023-02-28T05:21:53;15.73;;;12.40;;
63807;SDS011;49961;43.970;22.868;2023-02-28T05:22:54;15.02;;;11.85;;
63807;SDS011;49961;43.970;22.868;2023-02-28T05:23:59;13.52;;;10.70;;
63807;SDS011;49961;43.970;22.868;2023-02-28T05:25:01;13.80;;;10.65;;
63807;SDS011;49961;43.970;22.868;2023-02-28T05:26:01;12.43;;;10.30;;
63807;SDS011;49961;43.970;22.868;2023-02-28T05:27:02;14.43;;;10.53;;
63807;SDS011;49961;43.970;22.868;2023-02-28T05:28:03;13.35;;;10.82;;
63807;SDS011;49961;43.970;22.868;2023-02-28T05:29:04;11.23;;;9.23;;
63807;SDS011;49961;43.970;22.868;2023-02-28T05:30:05;11.77;;;8.80;;
63807;SDS011;49961;43.970;22.868;2023-02-28T05:31:07;10.98;;;8.98;;
63807;SDS011;49961;43.970;22.868;2023-02-28T05:32:11;8.63;;;6.85;;
63807;SDS011;49961;43.970;22.868;2023-02-28T05:33:12;8.20;;;7.00;;
63807;SDS011;49961;43.970;22.868;2023-02-28T05:34:12;7.77;;;6.60;;
63807;SDS011;49961;43.970;22.868;2023-02-28T05:35:15;7.70;;;6.50;;
63807;SDS011;49961;43.970;22.868;2023-02-28T05:36:15;8.13;;;5.57;;
63807;SDS011;49961;43.970;22.868;2023-02-28T05:37:16;6.70;;;6.00;;
63807;SDS011;49961;43.970;22.868;2023-02-28T05:38:16;6.67;;;5.83;;
63807;SDS011;49961;43.970;22.868;2023-02-28T05:39:17;6.00;;;5.40;;
63807;SDS011;49961;43.970;22.868;2023-02-28T05:40:18;6.37;;;5.60;;
63807;SDS011;49961;43.970;22.868;2023-02-28T05:41:20;5.75;;;5.15;;
63807;SDS011;49961;43.970;22.868;2023-02-28T05:42:21;7.00;;;5.70;;
63807;SDS011;49961;43.970;22.868;2023-02-28T05:43:21;6.00;;;5.40;;
63807;SDS011;49961;43.970;22.868;2023-02-28T05:44:22;6.32;;;4.90;;
63807;SDS011;49961;43.970;22.868;2023-02-28T05:45:23;5.50;;;5.00;;
63807;SDS011;49961;43.970;22.868;2023-02-28T05:46:23;6.67;;;5.97;;
63807;SDS011;49961;43.970;22.868;2023-02-28T05:47:24;6.03;;;5.43;;
63807;SDS011;49961;43.970;22.868;2023-02-28T05:48:24;6.77;;;6.07;;
63807;SDS011;49961;43.970;22.868;2023-02-28T05:49:26;4.82;;;4.38;;
63807;SDS011;49961;43.970;22.868;2023-02-28T05:50:26;5.00;;;4.50;;
63807;SDS011;49961;43.970;22.868;2023-02-28T05:51:26;5.70;;;4.30;;
63807;SDS011;49961;43.970;22.868;2023-02-28T05:52:28;5.40;;;4.70;;
63807;SDS011;49961;43.970;22.868;2023-02-28T05:53:30;4.90;;;4.40;;
63807;SDS011;49961;43.970;22.868;2023-02-28T05:54:31;4.72;;;4.22;;
63807;SDS011;49961;43.970;22.868;2023-02-28T05:55:32;4.80;;;4.40;;
63807;SDS011;49961;43.970;22.868;2023-02-28T05:56:34;5.00;;;4.50;;
63807;SDS011;49961;43.970;22.868;2023-02-28T05:57:35;5.03;;;4.47;;
63807;SDS011;49961;43.970;22.868;2023-02-28T05:58:35;4.73;;;4.20;;
63807;SDS011;49961;43.970;22.868;2023-02-28T05:59:36;5.10;;;4.60;;
63807;SDS011;49961;43.970;22.868;2023-02-28T06:00:39;8.10;;;7.28;;
63807;SDS011;49961;43.970;22.868;2023-02-28T06:01:40;7.20;;;6.50;;
63807;SDS011;49961;43.970;22.868;2023-02-28T06:02:47;6.25;;;4.82;;
63807;SDS011;49961;43.970;22.868;2023-02-28T06:03:48;9.30;;;8.33;;
63807;SDS011;49961;43.970;22.868;2023-02-28T06:04:49;5.60;;;5.10;;
63807;SDS011;49961;43.970;22.868;2023-02-28T06:05:49;7.73;;;6.93;;
63807;SDS011;49961;43.970;22.868;2023-02-28T06:06:50;4.93;;;4.43;;
63807;SDS011;49961;43.970;22.868;2023-02-28T06:07:50;5.63;;;5.10;;
63807;SDS011;49961;43.970;22.868;2023-02-28T06:08:51;4.70;;;4.20;;
63807;SDS011;49961;43.970;22.868;2023-02-28T06:09:51;5.57;;;4.03;;
63807;SDS011;49961;43.970;22.868;2023-02-28T06:10:52;6.13;;;4.20;;
63807;SDS011;49961;43.970;22.868;2023-02-28T06:11:53;4.20;;;3.80;;
63807;SDS011;49961;43.970;22.868;2023-02-28T06:12:54;5.70;;;4.10;;
63807;SDS011;49961;43.970;22.868;2023-02-28T06:13:55;4.10;;;3.70;;
63807;SDS011;49961;43.970;22.868;2023-02-28T06:14:59;3.88;;;3.55;;
63807;SDS011;49961;43.970;22.868;2023-02-28T06:16:00;4.90;;;3.87;;
63807;SDS011;49961;43.970;22.868;2023-02-28T06:17:01;4.35;;;3.92;;
63807;SDS011;49961;43.970;22.868;2023-02-28T06:18:03;4.80;;;4.35;;
63807;SDS011;49961;43.970;22.868;2023-02-28T06:19:04;7.05;;;6.10;;
63807;SDS011;49961;43.970;22.868;2023-02-28T06:20:05;4.50;;;3.97;;
63807;SDS011;49961;43.970;22.868;2023-02-28T06:21:06;4.35;;;3.72;;
63807;SDS011;49961;43.970;22.868;2023-02-28T06:22:06;4.00;;;3.37;;
63807;SDS011;49961;43.970;22.868;2023-02-28T06:23:07;4.10;;;3.70;;
63807;SDS011;49961;43.970;22.868;2023-02-28T06:24:07;4.40;;;4.00;;
63807;SDS011;49961;43.970;22.868;2023-02-28T06:25:09;4.43;;;3.60;;
63807;SDS011;49961;43.970;22.868;2023-02-28T06:26:10;4.97;;;3.92;;
63807;SDS011;49961;43.970;22.868;2023-02-28T06:27:11;4.10;;;3.70;;
63807;SDS011;49961;43.970;22.868;2023-02-28T06:28:11;4.60;;;4.20;;
63807;SDS011;49961;43.970;22.868;2023-02-28T06:29:12;4.27;;;3.87;;
63807;SDS011;49961;43.970;22.868;2023-02-28T06:30:13;4.70;;;4.10;;
63807;SDS011;49961;43.970;22.868;2023-02-28T06:31:14;4.17;;;3.77;;
63807;SDS011;49961;43.970;22.868;2023-02-28T06:32:16;4.80;;;4.28;;
63807;SDS011;49961;43.970;22.868;2023-02-28T06:33:16;4.47;;;4.07;;
63807;SDS011;49961;43.970;22.868;2023-02-28T06:34:16;5.57;;;4.27;;
63807;SDS011;49961;43.970;22.868;2023-02-28T06:35:17;4.80;;;4.30;;
63807;SDS011;49961;43.970;22.868;2023-02-28T06:36:18;5.07;;;4.47;;
63807;SDS011;49961;43.970;22.868;2023-02-28T06:37:18;5.47;;;4.67;;
63807;SDS011;49961;43.970;22.868;2023-02-28T06:38:19;12.60;;;7.67;;
63807;SDS011;49961;43.970;22.868;2023-02-28T06:39:19;13.33;;;7.50;;
63807;SDS011;49961;43.970;22.868;2023-02-28T06:40:20;5.03;;;4.53;;
63807;SDS011;49961;43.970;22.868;2023-02-28T06:41:24;5.13;;;4.63;;
63807;SDS011;49961;43.970;22.868;2023-02-28T06:42:25;4.90;;;4.35;;
63807;SDS011;49961;43.970;22.868;2023-02-28T06:43:29;5.82;;;4.85;;